Time;durP1;ratioP1;P1;durP2;ratioP2;P2;SDS_P1;SDS_P2;PMS_P1;PMS_P2;Temp;Humidity;BMP_temperature;BMP_pressure;BME280_temperature;BME280_humidity;BME280_pressure;Samples;Min_cycle;Max_cycle;Signal;HPM_P1;HPM_P2
2021/04/22 00:02:00;;;;;;;11.40;10.00;;;11.60;99.90;;;;;;5008416;28;20045;-73
2021/04/22 00:04:26;;;;;;;11.00;9.90;;;11.60;99.90;;;;;;5007375;28;20084;-73
2021/04/22 00:06:54;;;;;;;11.52;10.35;;;11.50;99.90;;;;;;4998524;28;20625;-73
2021/04/22 00:09:20;;;;;;;11.57;9.63;;;11.50;99.90;;;;;;5004772;28;20029;-72
2021/04/22 00:11:47;;;;;;;12.32;11.05;;;11.40;99.90;;;;;;5009174;28;20030;-72
2021/04/22 00:14:13;;;;;;;10.57;9.52;;;11.40;99.90;;;;;;4998806;28;20026;-73
2021/04/22 00:16:40;;;;;;;9.02;8.07;;;11.50;99.90;;;;;;5003374;28;20040;-72
2021/04/22 00:19:06;;;;;;;9.02;7.93;;;11.40;99.90;;;;;;5007259;28;20030;-73
2021/04/22 00:21:32;;;;;;;10.50;8.00;;;11.40;99.90;;;;;;4987423;28;20036;-73
2021/04/22 00:23:58;;;;;;;9.52;8.32;;;11.30;99.90;;;;;;5008770;28;20678;-73
2021/04/22 00:26:24;;;;;;;12.68;8.23;;;11.30;99.90;;;;;;5001486;28;20034;-73
2021/04/22 00:28:49;;;;;;;9.90;8.88;;;11.40;99.90;;;;;;4993984;28;20042;-72
2021/04/22 00:31:15;;;;;;;11.98;8.90;;;11.30;99.90;;;;;;5008124;28;20476;-73
2021/04/22 00:33:41;;;;;;;8.63;7.72;;;11.30;99.90;;;;;;4999251;28;20553;-73
2021/04/22 00:36:07;;;;;;;8.40;7.65;;;11.30;99.90;;;;;;5001522;28;20104;-73
2021/04/22 00:38:33;;;;;;;9.52;8.30;;;11.30;99.90;;;;;;5009485;28;20026;-73
2021/04/22 00:40:59;;;;;;;9.55;7.45;;;11.40;99.90;;;;;;4994882;28;20040;-73
2021/04/22 00:43:25;;;;;;;9.00;8.10;;;11.40;99.90;;;;;;5008366;28;20032;-73
2021/04/22 00:45:51;;;;;;;10.68;7.45;;;11.30;99.90;;;;;;5005808;28;20104;-73
2021/04/22 00:48:22;;;;;;;8.52;7.75;;;11.20;99.90;;;;;;5003465;28;20440;-73
2021/04/22 00:50:49;;;;;;;8.55;7.32;;;11.20;99.90;;;;;;4987514;28;20028;-72
2021/04/22 00:53:16;;;;;;;9.77;8.85;;;11.20;99.90;;;;;;5007234;28;20121;-73
2021/04/22 00:55:42;;;;;;;10.13;9.13;;;11.20;99.90;;;;;;5005878;28;20089;-72
2021/04/22 00:58:08;;;;;;;8.48;7.55;;;11.10;99.90;;;;;;5003160;28;20049;-72
2021/04/22 01:00:44;;;;;;;8.40;7.45;;;11.10;99.90;;;;;;5008598;28;20064;-73
2021/04/22 01:03:10;;;;;;;10.80;7.82;;;11.20;99.90;;;;;;4990910;28;20026;-73
2021/04/22 01:05:39;;;;;;;8.63;7.82;;;11.10;99.90;;;;;;5007052;28;20491;-73
2021/04/22 01:08:05;;;;;;;8.40;7.70;;;11.00;99.90;;;;;;5005267;28;20034;-73
2021/04/22 01:10:30;;;;;;;10.43;7.85;;;10.90;99.90;;;;;;5011224;28;20112;-73
2021/04/22 01:12:56;;;;;;;9.75;8.70;;;10.80;99.90;;;;;;4994838;28;20134;-73
2021/04/22 01:15:24;;;;;;;9.45;8.48;;;10.80;99.90;;;;;;5007355;28;20083;-73
2021/04/22 01:17:51;;;;;;;8.30;7.40;;;10.70;99.90;;;;;;5006078;28;20058;-73
2021/04/22 01:20:22;;;;;;;8.90;8.10;;;10.70;99.90;;;;;;5005922;28;20022;-73
2021/04/22 01:22:49;;;;;;;12.95;8.30;;;10.70;99.90;;;;;;5007582;28;20036;-72
2021/04/22 01:25:18;;;;;;;17.60;8.20;;;10.80;99.90;;;;;;4984199;28;20037;-73
2021/04/22 01:27:44;;;;;;;11.90;8.90;;;10.80;99.90;;;;;;5010720;28;20017;-73
2021/04/22 01:30:14;;;;;;;9.60;7.88;;;10.70;99.90;;;;;;5006844;28;20033;-72
2021/04/22 01:32:39;;;;;;;10.73;7.93;;;10.70;99.90;;;;;;5009235;28;20030;-73
2021/04/22 01:35:14;;;;;;;8.02;7.22;;;10.70;99.90;;;;;;4999162;28;20022;-72
2021/04/22 01:37:40;;;;;;;8.50;7.45;;;10.80;99.90;;;;;;4999465;28;20571;-72
2021/04/22 01:40:07;;;;;;;6.93;6.22;;;10.80;99.90;;;;;;5007253;28;20037;-72
2021/04/22 01:42:33;;;;;;;8.25;6.88;;;10.90;99.90;;;;;;4983902;28;20442;-73
2021/04/22 01:44:59;;;;;;;9.43;6.90;;;11.00;99.90;;;;;;5009102;28;20167;-73
2021/04/22 01:47:25;;;;;;;12.00;7.30;;;11.10;99.90;;;;;;5008375;28;20041;-72
2021/04/22 01:49:51;;;;;;;7.93;6.32;;;11.20;99.90;;;;;;5012508;28;20506;-72
2021/04/22 01:52:17;;;;;;;10.32;7.00;;;11.20;99.90;;;;;;5007126;28;20026;-72
2021/04/22 01:54:43;;;;;;;9.00;5.90;;;11.20;99.90;;;;;;5005838;28;20588;-72
2021/04/22 01:57:09;;;;;;;7.95;7.15;;;11.20;99.90;;;;;;5008598;28;20023;-72
2021/04/22 01:59:35;;;;;;;9.15;7.07;;;11.20;99.90;;;;;;5002794;28;20022;-73
2021/04/22 02:02:02;;;;;;;8.82;6.68;;;11.20;99.90;;;;;;4983901;28;20037;-72
2021/04/22 02:04:27;;;;;;;8.73;7.85;;;11.10;99.90;;;;;;5004923;28;20111;-72
2021/04/22 02:06:53;;;;;;;13.00;9.38;;;11.10;99.90;;;;;;5005015;28;20070;-72
2021/04/22 02:09:19;;;;;;;10.80;7.05;;;11.10;99.90;;;;;;5002643;28;20080;-72
2021/04/22 02:11:44;;;;;;;13.23;8.07;;;11.10;99.90;;;;;;5005522;28;20519;-72
2021/04/22 02:14:10;;;;;;;8.57;7.55;;;11.10;99.90;;;;;;5007478;28;20018;-72
2021/04/22 02:16:38;;;;;;;8.70;7.90;;;11.10;99.90;;;;;;5003422;28;20030;-72
2021/04/22 02:19:04;;;;;;;8.75;7.25;;;11.20;99.90;;;;;;5004378;28;20033;-73
2021/04/22 02:21:30;;;;;;;7.00;6.32;;;11.10;99.90;;;;;;5008278;28;20058;-72
2021/04/22 02:23:56;;;;;;;7.43;6.72;;;11.10;99.90;;;;;;5007356;28;20061;-74
2021/04/22 02:26:22;;;;;;;6.88;5.95;;;11.10;99.90;;;;;;5006220;28;20060;-72
2021/04/22 02:28:48;;;;;;;7.65;6.25;;;11.10;99.90;;;;;;4988911;28;20528;-73
2021/04/22 02:31:13;;;;;;;8.15;6.90;;;11.00;99.90;;;;;;5006616;28;20029;-72
2021/04/22 02:33:39;;;;;;;7.65;6.95;;;11.00;99.90;;;;;;4999458;28;20057;-72
2021/04/22 02:36:05;;;;;;;9.18;8.38;;;11.10;99.90;;;;;;5007381;28;20026;-72
2021/04/22 02:38:31;;;;;;;7.75;5.97;;;11.20;99.90;;;;;;5004594;28;20125;-73
2021/04/22 02:40:56;;;;;;;6.47;5.68;;;11.20;99.90;;;;;;4993772;28;20536;-73
2021/04/22 02:43:22;;;;;;;5.35;4.75;;;11.20;99.90;;;;;;5007694;28;20376;-73
2021/04/22 02:45:54;;;;;;;5.90;5.38;;;11.20;99.90;;;;;;5007232;28;20058;-73
2021/04/22 02:48:22;;;;;;;7.60;5.88;;;11.20;99.90;;;;;;5004420;28;20056;-73
2021/04/22 02:50:50;;;;;;;6.43;5.82;;;11.20;99.90;;;;;;5012678;28;20368;-73
2021/04/22 02:53:16;;;;;;;7.40;6.65;;;11.10;99.90;;;;;;5010793;28;20432;-73
2021/04/22 02:55:45;;;;;;;7.50;5.57;;;11.10;99.90;;;;;;5008562;28;20022;-73
2021/04/22 02:58:11;;;;;;;8.38;6.05;;;11.00;99.90;;;;;;5003203;28;20045;-74
2021/04/22 03:00:37;;;;;;;6.43;5.88;;;11.00;99.90;;;;;;5000881;28;20044;-73
2021/04/22 03:03:04;;;;;;;7.40;6.00;;;10.90;99.90;;;;;;5007286;28;20034;-72
2021/04/22 03:05:30;;;;;;;6.20;5.68;;;10.90;99.90;;;;;;5010271;28;20097;-73
2021/04/22 03:07:56;;;;;;;11.20;6.78;;;10.90;99.90;;;;;;5011985;28;20543;-73
2021/04/22 03:10:23;;;;;;;5.85;5.03;;;10.90;99.90;;;;;;5005959;28;20030;-73
2021/04/22 03:12:49;;;;;;;9.02;5.20;;;11.00;99.90;;;;;;5003682;28;20488;-73
2021/04/22 03:15:16;;;;;;;6.60;6.03;;;11.00;99.90;;;;;;5013435;28;20026;-74
2021/04/22 03:17:43;;;;;;;6.82;6.22;;;11.00;99.90;;;;;;5009346;28;20028;-73
2021/04/22 03:20:10;;;;;;;6.78;6.05;;;11.20;99.90;;;;;;5011638;28;20087;-73
2021/04/22 03:22:36;;;;;;;6.50;5.90;;;11.20;99.90;;;;;;4993897;28;20026;-73
2021/04/22 03:25:03;;;;;;;8.07;5.75;;;11.30;99.90;;;;;;5007149;28;20129;-73
2021/04/22 03:27:28;;;;;;;7.25;6.53;;;11.20;99.90;;;;;;5008370;28;20052;-73
2021/04/22 03:29:58;;;;;;;7.40;6.00;;;11.30;99.90;;;;;;5000485;28;20342;-73
2021/04/22 03:32:24;;;;;;;6.88;6.28;;;11.30;99.90;;;;;;5006620;28;20117;-73
2021/04/22 03:34:50;;;;;;;6.68;5.78;;;11.20;99.90;;;;;;5007831;28;20064;-74
2021/04/22 03:37:16;;;;;;;5.93;5.38;;;11.10;99.90;;;;;;5009800;28;20018;-73
2021/04/22 03:39:42;;;;;;;17.73;5.82;;;11.10;99.90;;;;;;5006296;28;20054;-72
2021/04/22 03:42:09;;;;;;;7.25;6.55;;;11.10;99.90;;;;;;5009365;28;20022;-73
2021/04/22 03:44:34;;;;;;;6.80;5.30;;;10.90;99.90;;;;;;5005115;28;20026;-73
2021/04/22 03:47:00;;;;;;;7.68;6.53;;;10.90;99.90;;;;;;5010653;28;20053;-73
2021/04/22 03:49:26;;;;;;;9.85;7.38;;;10.90;99.90;;;;;;5008081;28;20102;-74
2021/04/22 03:51:51;;;;;;;6.40;5.80;;;10.90;99.90;;;;;;5006512;28;20388;-74
2021/04/22 03:54:17;;;;;;;7.88;6.38;;;10.90;99.90;;;;;;5010380;28;20022;-74
2021/04/22 03:56:45;;;;;;;6.13;5.50;;;10.90;99.90;;;;;;5006606;28;20022;-74
2021/04/22 03:59:11;;;;;;;7.55;6.72;;;11.00;99.90;;;;;;4988024;28;20038;-72
2021/04/22 04:01:37;;;;;;;5.55;5.05;;;11.00;99.90;;;;;;5010736;28;20072;-73
2021/04/22 04:04:03;;;;;;;8.68;6.53;;;10.90;99.90;;;;;;5011083;28;20434;-73
2021/04/22 04:06:31;;;;;;;8.02;6.95;;;10.80;99.90;;;;;;5006157;28;20048;-73
2021/04/22 04:08:57;;;;;;;8.20;6.38;;;10.90;99.90;;;;;;5007915;28;20105;-73
2021/04/22 04:11:22;;;;;;;6.00;5.47;;;10.80;99.90;;;;;;5008788;28;20118;-73
2021/04/22 04:13:48;;;;;;;6.47;5.85;;;10.70;99.90;;;;;;5011061;28;20097;-73
2021/04/22 04:16:13;;;;;;;7.82;5.97;;;10.70;99.90;;;;;;5003495;28;20088;-73
2021/04/22 04:18:39;;;;;;;8.60;7.03;;;10.70;99.90;;;;;;5005403;28;20448;-75
2021/04/22 04:21:05;;;;;;;6.38;5.43;;;10.70;99.90;;;;;;5010901;28;20030;-72
2021/04/22 04:23:31;;;;;;;9.27;6.40;;;10.80;99.90;;;;;;5007569;28;20026;-72
2021/04/22 04:25:57;;;;;;;10.65;7.15;;;10.70;99.90;;;;;;5007407;28;20034;-73
2021/04/22 04:28:22;;;;;;;7.10;6.40;;;10.70;99.90;;;;;;5007984;28;20026;-73
2021/04/22 04:30:48;;;;;;;6.53;5.78;;;10.90;99.90;;;;;;5012009;28;20018;-73
2021/04/22 04:33:14;;;;;;;8.00;5.75;;;10.80;99.90;;;;;;5004638;28;20050;-73
2021/04/22 04:35:39;;;;;;;6.00;5.40;;;10.90;99.90;;;;;;5011344;28;20408;-73
2021/04/22 04:38:06;;;;;;;7.85;6.45;;;10.90;99.90;;;;;;5007187;28;20037;-74
2021/04/22 04:40:33;;;;;;;7.32;6.63;;;10.90;99.90;;;;;;5005520;28;20018;-73
2021/04/22 04:43:00;;;;;;;8.70;7.25;;;10.90;99.90;;;;;;5007101;28;20029;-73
2021/04/22 04:45:26;;;;;;;15.82;7.80;;;10.90;99.90;;;;;;4998149;28;20041;-73
2021/04/22 04:47:51;;;;;;;8.65;6.45;;;10.90;99.90;;;;;;4980022;28;20027;-73
2021/04/22 04:50:17;;;;;;;8.35;6.60;;;10.90;99.90;;;;;;5004914;28;20121;-74
2021/04/22 04:52:43;;;;;;;14.85;7.88;;;10.90;99.90;;;;;;5003247;28;20128;-73
2021/04/22 04:55:10;;;;;;;7.47;6.80;;;10.90;99.90;;;;;;5010264;28;20476;-73
2021/04/22 04:57:36;;;;;;;7.63;6.57;;;10.90;99.90;;;;;;5004259;28;20088;-74
2021/04/22 05:00:05;;;;;;;13.80;7.38;;;10.90;99.90;;;;;;5007015;28;20108;-74
2021/04/22 05:02:30;;;;;;;9.25;7.05;;;10.90;99.90;;;;;;5008796;28;20079;-74
2021/04/22 05:04:56;;;;;;;14.68;8.07;;;11.00;99.90;;;;;;5006710;28;20034;-74
2021/04/22 05:07:22;;;;;;;13.30;6.78;;;11.00;99.90;;;;;;5008990;28;20044;-74
2021/04/22 05:09:47;;;;;;;10.15;7.57;;;11.00;99.90;;;;;;5001322;28;20039;-73
2021/04/22 05:12:13;;;;;;;14.07;8.60;;;11.10;99.90;;;;;;5011544;28;20017;-73
2021/04/22 05:14:39;;;;;;;15.02;7.93;;;11.10;99.90;;;;;;5009178;28;20053;-73
2021/04/22 05:17:05;;;;;;;11.52;7.13;;;11.20;99.90;;;;;;5010219;28;20096;-74
2021/04/22 05:19:30;;;;;;;9.25;8.25;;;11.30;99.90;;;;;;5009838;28;20042;-74
2021/04/22 05:21:56;;;;;;;8.45;6.85;;;11.50;99.90;;;;;;4989871;28;20065;-74
2021/04/22 05:24:22;;;;;;;12.23;8.02;;;11.50;99.90;;;;;;5003773;28;20030;-75
2021/04/22 05:26:48;;;;;;;11.18;7.25;;;11.60;99.90;;;;;;5009685;28;20048;-74
2021/04/22 05:29:13;;;;;;;14.18;7.60;;;11.70;99.90;;;;;;4997532;28;20056;-75
2021/04/22 05:31:39;;;;;;;9.32;7.75;;;11.70;99.90;;;;;;4998978;28;20026;-75
2021/04/22 05:34:05;;;;;;;10.00;8.23;;;11.70;99.90;;;;;;5007534;28;20029;-71
2021/04/22 05:36:31;;;;;;;8.20;6.75;;;11.90;99.90;;;;;;5005875;28;20087;-71
2021/04/22 05:38:57;;;;;;;12.43;7.93;;;12.00;99.90;;;;;;5000646;28;20492;-72
2021/04/22 05:41:22;;;;;;;11.82;7.45;;;12.20;99.90;;;;;;5002444;28;20032;-72
2021/04/22 05:43:49;;;;;;;9.57;7.68;;;12.40;99.90;;;;;;5007505;28;20071;-72
2021/04/22 05:46:15;;;;;;;17.00;9.38;;;12.60;99.90;;;;;;4998374;28;20053;-73
2021/04/22 05:48:40;;;;;;;15.95;7.40;;;12.70;99.90;;;;;;5002868;28;20065;-74
2021/04/22 05:51:06;;;;;;;16.55;7.90;;;12.80;99.90;;;;;;4998642;28;20030;-71
2021/04/22 05:53:32;;;;;;;9.55;6.60;;;13.00;99.90;;;;;;4990181;28;20026;-72
2021/04/22 05:55:58;;;;;;;7.35;6.30;;;13.10;99.90;;;;;;5003165;28;20030;-72
2021/04/22 05:58:23;;;;;;;5.78;5.25;;;13.10;99.90;;;;;;4994524;28;20022;-73
2021/04/22 06:00:50;;;;;;;5.63;5.13;;;13.10;99.90;;;;;;5002351;28;20101;-72
2021/04/22 06:03:15;;;;;;;6.18;5.68;;;13.10;99.90;;;;;;5010220;28;20022;-73
2021/04/22 06:05:41;;;;;;;5.40;4.75;;;13.00;99.90;;;;;;5007849;28;20033;-72
2021/04/22 06:08:07;;;;;;;12.23;6.70;;;13.10;99.90;;;;;;4989640;28;20488;-74
2021/04/22 06:10:33;;;;;;;8.20;5.57;;;13.10;99.90;;;;;;5002465;28;20041;-73
2021/04/22 06:12:58;;;;;;;6.93;5.82;;;13.10;99.90;;;;;;5008008;28;20034;-72
2021/04/22 06:15:24;;;;;;;6.05;5.03;;;13.20;99.90;;;;;;5008851;28;20625;-72
2021/04/22 06:17:50;;;;;;;6.47;4.65;;;13.30;99.90;;;;;;5006397;28;20113;-72
2021/04/22 06:20:19;;;;;;;7.13;5.20;;;13.40;99.90;;;;;;5010205;28;20041;-72
2021/04/22 06:22:45;;;;;;;7.75;5.20;;;13.50;99.90;;;;;;5008822;28;20022;-71
2021/04/22 06:25:12;;;;;;;7.82;4.97;;;13.50;99.90;;;;;;5007157;28;20075;-74
2021/04/22 06:27:38;;;;;;;6.97;4.30;;;13.60;99.90;;;;;;5013076;28;20030;-68
2021/04/22 06:30:06;;;;;;;8.27;5.28;;;13.50;99.90;;;;;;5010684;28;20041;-73
2021/04/22 06:32:32;;;;;;;9.15;4.82;;;13.60;99.90;;;;;;5008608;28;20550;-73
2021/04/22 06:34:57;;;;;;;10.95;4.95;;;13.60;99.90;;;;;;5011613;28;20046;-72
2021/04/22 06:37:24;;;;;;;9.57;4.40;;;13.70;99.90;;;;;;5005165;28;20026;-72
2021/04/22 06:39:50;;;;;;;6.53;5.75;;;13.70;99.90;;;;;;5011939;28;20030;-73
2021/04/22 06:42:16;;;;;;;5.88;5.38;;;13.80;99.90;;;;;;5012056;28;20492;-73
2021/04/22 06:44:42;;;;;;;6.68;5.25;;;13.80;99.90;;;;;;5010939;28;20033;-71
2021/04/22 06:47:09;;;;;;;8.02;5.05;;;14.00;99.90;;;;;;5008413;28;20019;-72
2021/04/22 06:49:34;;;;;;;5.88;4.47;;;14.10;99.90;;;;;;5008995;28;20172;-71
2021/04/22 06:52:00;;;;;;;5.75;5.28;;;14.20;99.90;;;;;;5011970;28;20512;-72
2021/04/22 06:54:26;;;;;;;6.63;6.10;;;14.30;99.90;;;;;;4994176;28;20021;-72
2021/04/22 06:56:52;;;;;;;5.97;4.82;;;14.40;99.90;;;;;;5004709;28;20030;-72
2021/04/22 06:59:18;;;;;;;11.80;5.50;;;14.50;99.90;;;;;;5013917;28;20483;-72
2021/04/22 07:01:44;;;;;;;6.55;4.00;;;14.60;99.90;;;;;;5004399;28;20030;-72
2021/04/22 07:04:10;;;;;;;5.55;4.60;;;14.60;99.90;;;;;;5011209;28;20065;-72
2021/04/22 07:06:35;;;;;;;6.05;4.60;;;14.70;99.90;;;;;;5004745;28;20083;-73
2021/04/22 07:09:02;;;;;;;5.13;3.97;;;14.80;99.90;;;;;;5009252;28;20388;-74
2021/04/22 07:11:28;;;;;;;7.03;4.70;;;14.80;99.90;;;;;;5008674;28;20454;-72
2021/04/22 07:13:54;;;;;;;6.63;5.40;;;14.90;99.90;;;;;;5014048;28;20049;-73
2021/04/22 07:16:19;;;;;;;6.82;4.72;;;14.90;99.90;;;;;;4991213;28;20022;-73
2021/04/22 07:18:45;;;;;;;10.07;4.68;;;14.90;99.90;;;;;;5002543;28;20507;-73
2021/04/22 07:21:11;;;;;;;9.07;5.88;;;15.00;99.90;;;;;;5012861;28;20069;-73
2021/04/22 07:23:38;;;;;;;5.28;4.78;;;15.10;99.90;;;;;;5005236;28;20091;-73
2021/04/22 07:26:03;;;;;;;8.52;4.93;;;15.00;99.90;;;;;;5008836;28;20040;-73
2021/04/22 07:28:29;;;;;;;7.25;4.43;;;14.90;99.90;;;;;;4995499;28;20112;-73
2021/04/22 07:30:55;;;;;;;6.55;5.07;;;14.90;99.90;;;;;;5005064;28;20038;-73
2021/04/22 07:33:21;;;;;;;9.57;4.35;;;15.00;99.90;;;;;;5008630;28;20025;-72
2021/04/22 07:35:47;;;;;;;7.28;4.65;;;14.90;99.90;;;;;;5005447;28;20195;-74
2021/04/22 07:38:15;;;;;;;11.75;5.18;;;14.90;99.90;;;;;;5008462;28;20072;-72
2021/04/22 07:40:42;;;;;;;7.20;4.68;;;14.80;99.90;;;;;;5001705;28;20079;-72
2021/04/22 07:43:08;;;;;;;8.38;4.57;;;14.80;99.90;;;;;;5010514;28;20057;-72
2021/04/22 07:45:41;;;;;;;9.77;5.30;;;14.70;99.90;;;;;;5008873;28;20153;-72
2021/04/22 07:48:09;;;;;;;5.43;4.32;;;14.80;99.90;;;;;;5008364;28;20057;-72
2021/04/22 07:50:35;;;;;;;7.05;4.38;;;14.80;99.90;;;;;;5009571;28;20033;-72
2021/04/22 07:53:05;;;;;;;7.05;4.15;;;14.60;99.90;;;;;;5012830;28;20025;-72
2021/04/22 07:55:33;;;;;;;5.30;4.20;;;14.50;99.90;;;;;;5007469;28;20067;-72
2021/04/22 07:58:00;;;;;;;11.68;5.38;;;14.60;99.90;;;;;;5015223;28;20026;-71
2021/04/22 08:00:27;;;;;;;8.18;4.50;;;14.60;99.90;;;;;;5011088;28;20034;-73
2021/04/22 08:02:54;;;;;;;5.82;4.03;;;14.70;99.90;;;;;;5008888;28;20108;-71
2021/04/22 08:05:23;;;;;;;6.82;3.97;;;14.90;99.90;;;;;;5010805;28;20558;-71
2021/04/22 08:07:49;;;;;;;5.25;4.53;;;14.90;99.90;;;;;;5012634;28;20044;-72
2021/04/22 08:10:19;;;;;;;6.60;3.95;;;15.00;99.90;;;;;;5002799;28;20537;-74
2021/04/22 08:12:45;;;;;;;7.63;3.97;;;15.20;99.90;;;;;;4997090;28;20022;-73
2021/04/22 08:15:16;;;;;;;8.07;3.97;;;15.40;99.90;;;;;;5010784;28;20025;-73
2021/04/22 08:17:43;;;;;;;8.25;4.70;;;15.50;99.90;;;;;;5005705;28;20031;-73
2021/04/22 08:20:24;;;;;;;9.18;3.75;;;15.60;99.90;;;;;;4998973;28;20026;-72
2021/04/22 08:22:51;;;;;;;6.85;4.20;;;15.80;99.90;;;;;;5003727;28;20044;-71
2021/04/22 08:25:21;;;;;;;7.47;4.47;;;15.90;99.90;;;;;;4993967;28;20077;-71
2021/04/22 08:27:51;;;;;;;7.55;5.10;;;16.00;99.90;;;;;;5008415;28;20033;-71
2021/04/22 08:30:22;;;;;;;13.63;4.43;;;15.90;99.90;;;;;;5008198;28;20021;-72
2021/04/22 08:32:48;;;;;;;11.77;4.35;;;15.70;99.90;;;;;;5008704;28;20018;-72
2021/04/22 08:35:14;;;;;;;4.97;4.40;;;15.70;99.90;;;;;;5009518;28;20070;-70
2021/04/22 08:37:40;;;;;;;5.05;4.55;;;15.80;99.90;;;;;;5011656;28;20491;-70
2021/04/22 08:40:08;;;;;;;6.95;4.63;;;15.80;99.90;;;;;;5008462;28;20057;-71
2021/04/22 08:42:35;;;;;;;5.43;4.00;;;15.80;99.90;;;;;;5009911;28;20025;-71
2021/04/22 08:45:02;;;;;;;4.82;4.00;;;15.90;99.90;;;;;;5008533;28;20451;-71
2021/04/22 08:47:28;;;;;;;8.95;4.97;;;15.80;99.90;;;;;;5012005;28;20029;-70
2021/04/22 08:49:56;;;;;;;9.98;4.90;;;15.80;99.90;;;;;;5004400;28;20092;-72
2021/04/22 08:52:23;;;;;;;5.78;5.22;;;15.80;99.90;;;;;;5010738;28;20079;-71
2021/04/22 08:54:53;;;;;;;6.00;5.13;;;15.60;99.90;;;;;;5011714;28;20022;-70
2021/04/22 08:57:19;;;;;;;8.20;4.72;;;15.40;99.90;;;;;;5008727;28;20068;-71
2021/04/22 08:59:46;;;;;;;7.75;4.55;;;15.40;99.90;;;;;;5010714;28;20648;-72
2021/04/22 09:02:12;;;;;;;6.65;5.97;;;15.20;99.90;;;;;;5010495;28;20063;-72
2021/04/22 09:04:38;;;;;;;5.38;4.78;;;15.20;99.90;;;;;;5002907;28;20481;-72
2021/04/22 09:07:04;;;;;;;9.73;4.82;;;15.10;99.90;;;;;;4991994;28;20034;-71
2021/04/22 09:09:30;;;;;;;10.52;4.75;;;15.00;99.90;;;;;;5011345;28;20070;-71
2021/04/22 09:11:56;;;;;;;6.55;4.85;;;15.00;99.90;;;;;;4990746;28;20033;-71
2021/04/22 09:14:23;;;;;;;7.88;5.43;;;15.00;99.90;;;;;;5009356;28;20026;-72
2021/04/22 09:16:50;;;;;;;8.77;4.60;;;15.10;99.90;;;;;;4993505;28;20021;-71
2021/04/22 09:19:25;;;;;;;9.82;5.38;;;15.10;99.90;;;;;;5000818;28;20040;-74
2021/04/22 09:21:54;;;;;;;8.77;4.28;;;15.10;99.90;;;;;;5005274;28;20036;-73
2021/04/22 09:24:22;;;;;;;14.25;4.78;;;15.10;99.90;;;;;;5010906;28;20116;-73
2021/04/22 09:27:02;;;;;;;9.38;4.43;;;15.10;99.90;;;;;;5007811;28;20022;-73
2021/04/22 09:29:38;;;;;;;4.65;4.25;;;15.20;99.90;;;;;;5004380;28;20026;-73
2021/04/22 09:32:16;;;;;;;6.03;4.68;;;15.40;99.90;;;;;;5009982;28;20022;-72
2021/04/22 09:34:46;;;;;;;7.75;3.83;;;15.50;99.90;;;;;;5007064;28;20033;-72
2021/04/22 09:37:11;;;;;;;7.97;4.90;;;15.70;99.90;;;;;;5010894;28;20024;-73
2021/04/22 09:39:37;;;;;;;8.88;5.03;;;15.80;99.90;;;;;;5008686;28;20022;-73
2021/04/22 09:42:11;;;;;;;6.28;3.90;;;15.80;99.90;;;;;;5005012;28;20026;-71
2021/04/22 09:44:39;;;;;;;5.45;3.35;;;15.90;99.90;;;;;;5007487;28;20033;-72
2021/04/22 09:47:16;;;;;;;6.82;4.45;;;15.90;99.90;;;;;;5008841;28;20057;-72
2021/04/22 09:49:51;;;;;;;8.00;5.15;;;15.90;99.90;;;;;;5003466;28;20041;-71
2021/04/22 09:52:19;;;;;;;8.07;3.72;;;15.90;99.90;;;;;;5005006;28;20125;-73
2021/04/22 09:54:55;;;;;;;8.85;4.32;;;16.00;99.90;;;;;;5006168;28;20033;-72
2021/04/22 09:57:31;;;;;;;4.90;3.70;;;16.00;99.90;;;;;;5010318;28;20036;-73
2021/04/22 09:59:59;;;;;;;6.82;3.47;;;16.20;99.90;;;;;;5007521;28;20033;-72
2021/04/22 10:02:25;;;;;;;6.97;3.65;;;16.20;99.90;;;;;;5002401;28;20037;-73
2021/04/22 10:04:54;;;;;;;6.38;3.45;;;16.40;99.90;;;;;;5009793;28;20033;-73
2021/04/22 10:07:29;;;;;;;5.72;3.75;;;16.30;99.90;;;;;;5011072;28;20128;-73
2021/04/22 10:09:57;;;;;;;4.82;4.38;;;16.30;99.90;;;;;;4991955;28;20099;-73
2021/04/22 10:12:31;;;;;;;4.65;3.67;;;16.30;99.90;;;;;;5001951;28;20033;-73
2021/04/22 10:15:18;;;;;;;4.68;3.97;;;16.10;99.90;;;;;;5012315;28;20116;-73
2021/04/22 10:17:57;;;;;;;8.90;4.28;;;16.10;99.90;;;;;;4992451;28;20302;-74
2021/04/22 10:20:26;;;;;;;6.65;3.78;;;16.10;99.90;;;;;;4994401;28;20109;-72
2021/04/22 10:22:53;;;;;;;7.68;5.38;;;16.20;99.90;;;;;;5007645;28;20026;-72
2021/04/22 10:25:24;;;;;;;5.28;3.65;;;16.20;99.90;;;;;;5010330;28;20594;-73
2021/04/22 10:27:51;;;;;;;6.20;3.67;;;16.20;99.90;;;;;;5010179;28;20087;-73
2021/04/22 10:30:22;;;;;;;7.85;4.47;;;16.10;99.90;;;;;;5011295;28;20400;-73
2021/04/22 10:32:49;;;;;;;7.25;4.68;;;16.00;99.90;;;;;;5008899;28;20152;-74
2021/04/22 10:35:17;;;;;;;11.93;4.85;;;16.00;99.90;;;;;;5010876;28;20026;-73
2021/04/22 10:37:45;;;;;;;13.73;4.65;;;15.80;99.90;;;;;;5010898;28;20068;-72
2021/04/22 10:40:13;;;;;;;12.55;5.53;;;15.70;99.90;;;;;;5010211;28;20030;-75
2021/04/22 10:42:39;;;;;;;10.13;5.57;;;15.70;99.90;;;;;;5006077;28;20034;-74
2021/04/22 10:45:15;;;;;;;7.82;4.60;;;15.70;99.90;;;;;;5008849;28;20495;-72
2021/04/22 10:47:41;;;;;;;9.05;5.07;;;15.70;99.90;;;;;;5008807;28;20040;-72
2021/04/22 10:50:11;;;;;;;7.32;4.50;;;15.60;99.90;;;;;;5007035;28;20442;-74
2021/04/22 10:52:44;;;;;;;8.50;5.68;;;15.50;99.90;;;;;;5008336;28;20026;-74
2021/04/22 10:55:41;;;;;;;10.60;5.57;;;15.40;99.90;;;;;;4993167;28;20026;-75
2021/04/22 10:58:26;;;;;;;8.55;4.78;;;15.30;99.90;;;;;;4980471;28;20061;-73
2021/04/22 11:01:03;;;;;;;6.63;5.22;;;15.50;99.90;;;;;;5012027;28;20040;-73
2021/04/22 11:03:39;;;;;;;10.13;6.10;;;15.50;99.90;;;;;;5008526;28;20472;-73
2021/04/22 11:06:13;;;;;;;6.95;5.43;;;15.60;99.90;;;;;;5010237;28;20018;-73
2021/04/22 11:08:45;;;;;;;7.80;5.30;;;15.60;99.90;;;;;;5004944;28;20030;-72
2021/04/22 11:11:22;;;;;;;5.65;5.10;;;15.40;99.90;;;;;;5012788;28;20110;-72
2021/04/22 11:13:50;;;;;;;9.75;5.30;;;15.40;99.90;;;;;;5008604;28;20100;-73
2021/04/22 11:16:28;;;;;;;9.52;5.60;;;15.50;99.90;;;;;;5009613;28;20030;-72
2021/04/22 11:18:54;;;;;;;9.88;5.43;;;15.50;99.90;;;;;;5010747;28;20537;-71
2021/04/22 11:21:36;;;;;;;7.03;5.78;;;15.60;99.90;;;;;;5011066;28;20040;-73
2021/04/22 11:24:03;;;;;;;5.95;5.25;;;15.60;99.90;;;;;;5012361;28;20104;-71
2021/04/22 11:26:32;;;;;;;11.55;5.70;;;15.80;99.90;;;;;;5012974;28;20463;-73
2021/04/22 11:29:15;;;;;;;12.23;5.43;;;15.80;99.90;;;;;;4983986;28;20034;-73
2021/04/22 11:31:52;;;;;;;9.40;5.78;;;15.80;99.90;;;;;;5011383;28;20018;-72
2021/04/22 11:34:29;;;;;;;7.25;5.60;;;15.90;99.90;;;;;;4994807;28;20033;-72
2021/04/22 11:36:55;;;;;;;10.70;6.10;;;15.80;99.90;;;;;;5011696;28;20018;-72
2021/04/22 11:39:34;;;;;;;7.40;5.85;;;15.60;99.90;;;;;;5012870;28;20483;-74
2021/04/22 11:42:02;;;;;;;8.25;5.78;;;15.80;99.90;;;;;;5016773;28;20110;-73
2021/04/22 11:44:54;;;;;;;6.80;4.97;;;15.80;99.90;;;;;;5011969;28;20096;-72
2021/04/22 11:47:21;;;;;;;16.83;5.90;;;15.80;99.90;;;;;;4982434;28;20034;-73
2021/04/22 11:49:48;;;;;;;10.98;4.80;;;15.70;99.90;;;;;;4991447;28;20457;-76
2021/04/22 11:52:21;;;;;;;13.60;5.88;;;15.70;99.90;;;;;;5008010;28;20073;-73
2021/04/22 11:54:47;;;;;;;8.20;5.75;;;15.70;99.90;;;;;;4995901;28;20023;-73
2021/04/22 11:57:14;;;;;;;8.77;5.85;;;15.80;99.90;;;;;;4988314;28;20072;-74
2021/04/22 11:59:40;;;;;;;12.65;5.20;;;15.70;99.90;;;;;;5022435;28;20038;-72
2021/04/22 12:02:09;;;;;;;11.45;5.85;;;15.70;99.90;;;;;;5007532;28;20038;-73
2021/04/22 12:04:35;;;;;;;10.23;6.07;;;15.70;99.90;;;;;;5014209;28;20027;-74
2021/04/22 12:07:01;;;;;;;10.18;7.43;;;15.70;99.90;;;;;;4985722;28;20442;-74
2021/04/22 12:09:29;;;;;;;8.32;5.50;;;15.70;99.90;;;;;;5013034;28;20025;-74
2021/04/22 12:12:06;;;;;;;9.13;5.78;;;15.80;99.90;;;;;;5012076;28;20030;-74
2021/04/22 12:14:31;;;;;;;10.52;6.28;;;15.80;99.90;;;;;;5001152;28;20104;-74
2021/04/22 12:16:57;;;;;;;11.32;6.00;;;15.70;99.90;;;;;;4994985;28;20062;-72
2021/04/22 12:19:25;;;;;;;10.45;6.90;;;15.80;99.90;;;;;;5005126;28;20175;-73
2021/04/22 12:21:52;;;;;;;9.88;5.55;;;15.90;99.90;;;;;;5009122;28;20392;-73
2021/04/22 12:24:21;;;;;;;6.10;5.60;;;15.70;99.90;;;;;;5007744;28;20591;-73
2021/04/22 12:26:48;;;;;;;14.70;5.93;;;15.40;99.90;;;;;;5009325;28;20026;-72
2021/04/22 12:29:14;;;;;;;9.00;4.72;;;15.30;99.90;;;;;;5010268;28;20049;-73
2021/04/22 12:32:01;;;;;;;12.07;8.63;;;15.60;99.90;;;;;;5012217;28;20030;-73
2021/04/22 12:34:30;;;;;;;9.55;5.43;;;15.70;99.90;;;;;;5010185;28;20022;-72
2021/04/22 12:37:08;;;;;;;11.48;5.40;;;15.70;99.90;;;;;;5012295;28;20033;-72
2021/04/22 12:39:38;;;;;;;14.77;5.82;;;15.60;99.90;;;;;;5011231;28;20034;-74
2021/04/22 12:42:06;;;;;;;9.30;7.07;;;15.50;99.90;;;;;;5011655;28;20026;-72
2021/04/22 12:44:33;;;;;;;11.98;5.65;;;15.70;99.90;;;;;;5005668;28;20022;-73
2021/04/22 12:47:07;;;;;;;9.57;6.45;;;15.90;99.90;;;;;;5008755;28;20412;-73